Paradise Valley, Arizona
Current Conditions -  °F | °C
As of 8:53 PM on Saturday 25 Oct 2014 (Local Time) from KSDL Reporting Station
Clear Clear  
Wind Chill: 81°   Ceiling: Unl
Heat Index: 81°   Visibility: 10mi
Dew Point: 51°   Wind: 0mph
Humidity: 35%   Direction: NA
Pressure: 29.94"   Gusts: NA
Location:  33.53°N, 111.94°W
Report Text: KSDL 260353Z 00000KT 10SM CLR 27/11 A2994 RMK AO2 SLP114 T02720106
Loading
Personal Weather Stations






























Interactive Weather Map
Tropical Storm Tracking
New forecast layout! Learn more

10-Day Weather Forecast

Advertisements
Track Severe Weather on mobile